Time;durP1;ratioP1;P1;durP2;ratioP2;P2;SDS_P1;SDS_P2;PMS_P1;PMS_P2;Temp;Humidity;BMP_temperature;BMP_pressure;BME280_temperature;BME280_humidity;BME280_pressure;Samples;Min_cycle;Max_cycle;Signal;HPM_P1;HPM_P2
2023/07/16 00:00:57;;;;;;;3.20;2.90;;;;;;;21.91;100.00;95799.38;5067332;28;20033;-76
2023/07/16 00:03:22;;;;;;;3.95;3.25;;;;;;;21.92;100.00;95800.22;5066794;28;20375;-75
2023/07/16 00:05:51;;;;;;;3.10;2.88;;;;;;;21.73;100.00;95811.59;5068324;28;20652;-76
2023/07/16 00:08:16;;;;;;;7.43;3.53;;;;;;;21.67;100.00;95796.38;5053964;28;20070;-75
2023/07/16 00:10:42;;;;;;;3.10;2.80;;;;;;;21.59;100.00;95770.59;5054022;28;20101;-76
2023/07/16 00:13:07;;;;;;;3.38;2.47;;;;;;;21.51;100.00;95769.97;5057401;28;20037;-76
2023/07/16 00:15:33;;;;;;;2.97;2.67;;;;;;;21.36;100.00;95717.50;5073185;28;20427;-76
2023/07/16 00:17:58;;;;;;;3.30;3.00;;;;;;;21.32;100.00;95668.91;5055497;28;20464;-76
2023/07/16 00:20:23;;;;;;;4.75;3.00;;;;;;;21.26;100.00;94258.34;5053586;28;20112;-76
2023/07/16 00:22:49;;;;;;;2.45;2.35;;;;;;;21.22;100.00;94067.22;5066678;28;20099;-76
2023/07/16 00:25:15;;;;;;;4.40;3.00;;;;;;;21.13;100.00;94201.47;5054324;28;20052;-76
2023/07/16 00:27:41;;;;;;;2.80;2.60;;;;;;;21.07;100.00;94320.13;5070953;28;20032;-75
2023/07/16 00:30:07;;;;;;;2.80;2.60;;;;;;;20.96;100.00;94509.06;5056889;28;20021;-75
2023/07/16 00:32:33;;;;;;;2.72;2.53;;;;;;;20.95;100.00;94758.91;5054926;28;20013;-75
2023/07/16 00:34:58;;;;;;;2.65;2.45;;;;;;;20.93;100.00;94977.69;5058245;28;20040;-75
2023/07/16 00:37:24;;;;;;;3.25;2.95;;;;;;;20.89;100.00;95153.06;5069036;28;20032;-75
2023/07/16 00:39:50;;;;;;;2.83;2.60;;;;;;;20.89;100.00;95218.09;5070114;28;20021;-75
2023/07/16 00:42:15;;;;;;;6.00;2.47;;;;;;;20.87;100.00;95270.97;5058422;28;20493;-75
2023/07/16 00:44:41;;;;;;;3.70;2.83;;;;;;;20.86;100.00;95380.88;5055518;28;20025;-74
2023/07/16 00:47:06;;;;;;;2.83;2.55;;;;;;;20.92;100.00;95414.00;5055890;28;20131;-76
2023/07/16 00:49:32;;;;;;;3.25;2.70;;;;;;;20.90;100.00;95424.91;5060440;28;20020;-76
2023/07/16 00:51:59;;;;;;;3.38;2.35;;;;;;;20.96;100.00;95447.31;5075879;28;20564;-76
2023/07/16 00:54:24;;;;;;;2.83;2.63;;;;;;;20.96;100.00;95466.03;5071920;28;20056;-76
2023/07/16 00:56:50;;;;;;;2.20;2.10;;;;;;;20.87;100.00;95478.84;5079437;28;20032;-76
2023/07/16 00:59:16;;;;;;;2.70;2.50;;;;;;;20.81;100.00;95482.38;5062812;28;20028;-76
2023/07/16 01:01:41;;;;;;;2.55;2.35;;;;;;;20.81;100.00;95496.53;5070237;28;20029;-76
2023/07/16 01:04:07;;;;;;;3.30;2.22;;;;;;;20.75;100.00;95505.38;5069698;28;20560;-76
2023/07/16 01:06:38;;;;;;;2.75;2.55;;;;;;;20.78;100.00;95502.28;5065100;28;20028;-75
2023/07/16 01:09:14;;;;;;;3.83;2.75;;;;;;;20.75;100.00;95505.38;5068594;28;20514;-76
2023/07/16 01:11:42;;;;;;;2.60;2.40;;;;;;;20.77;100.00;95770.81;5068343;28;20572;-76
2023/07/16 01:14:08;;;;;;;2.70;2.45;;;;;;;20.75;100.00;95818.34;5067197;28;20019;-76
2023/07/16 01:16:33;;;;;;;3.92;2.60;;;;;;;20.64;100.00;95834.97;5067395;28;20016;-75
2023/07/16 01:18:59;;;;;;;3.00;2.20;;;;;;;20.60;100.00;95831.91;5064471;28;20050;-76
2023/07/16 01:21:31;;;;;;;3.47;2.72;;;;;;;20.68;100.00;95830.91;5081311;28;20021;-75
2023/07/16 01:23:57;;;;;;;2.67;2.20;;;;;;;20.47;100.00;95840.72;5059973;28;20116;-76
2023/07/16 01:26:50;;;;;;;2.72;2.42;;;;;;;20.33;100.00;95835.31;5076125;28;20080;-76
2023/07/16 01:29:21;;;;;;;2.55;2.22;;;;;;;20.30;100.00;95858.94;5071609;28;20484;-75
2023/07/16 01:31:50;;;;;;;3.97;2.08;;;;;;;20.24;100.00;95865.94;5068373;28;20038;-75
2023/07/16 01:34:16;;;;;;;3.42;2.20;;;;;;;20.24;100.00;95865.09;5073506;28;20128;-76
2023/07/16 01:36:43;;;;;;;3.92;2.17;;;;;;;20.27;100.00;95859.34;5066229;28;20056;-75
2023/07/16 01:39:10;;;;;;;2.47;2.28;;;;;;;20.26;100.00;95865.72;5066306;28;20024;-75
2023/07/16 01:41:36;;;;;;;2.38;2.17;;;;;;;20.18;100.00;95867.53;5057883;28;20040;-75
2023/07/16 01:44:01;;;;;;;1.98;1.88;;;;;;;20.19;100.00;95879.03;5061953;28;20779;-75
2023/07/16 01:46:27;;;;;;;2.25;2.03;;;;;;;20.12;100.00;95878.19;5069569;28;20028;-76
2023/07/16 01:48:52;;;;;;;1.90;1.80;;;;;;;20.10;100.00;95864.19;5062034;28;20694;-76
2023/07/16 01:51:19;;;;;;;2.45;2.33;;;;;;;20.01;100.00;95876.91;5058914;28;20051;-76
2023/07/16 01:53:45;;;;;;;2.33;2.13;;;;;;;19.99;100.00;95866.41;5066937;27;20404;-75
2023/07/16 01:56:10;;;;;;;2.00;1.90;;;;;;;20.00;100.00;95865.38;5055917;28;20029;-76
2023/07/16 01:58:36;;;;;;;2.60;2.00;;;;;;;20.00;100.00;95853.88;5064425;28;20052;-76
2023/07/16 02:01:04;;;;;;;2.45;1.88;;;;;;;20.00;100.00;95860.03;5069702;28;20025;-76
2023/07/16 02:03:30;;;;;;;2.38;1.92;;;;;;;19.96;100.00;95865.97;5066913;28;20501;-76
2023/07/16 02:05:55;;;;;;;2.03;1.92;;;;;;;20.00;100.00;95865.38;5062588;28;20106;-75
2023/07/16 02:08:20;;;;;;;2.20;2.05;;;;;;;20.02;100.00;95868.69;5055892;28;20044;-75
2023/07/16 02:10:49;;;;;;;3.05;1.92;;;;;;;19.97;100.00;95871.13;5072914;28;20032;-75
2023/07/16 02:13:15;;;;;;;2.47;2.20;;;;;;;19.96;100.00;95869.47;5075401;28;20526;-75
2023/07/16 02:15:40;;;;;;;4.75;2.47;;;;;;;19.99;100.00;95870.94;5077324;28;20037;-75
2023/07/16 02:18:06;;;;;;;2.00;1.90;;;;;;;20.02;100.00;95862.50;5060193;28;20474;-75
2023/07/16 02:20:31;;;;;;;2.47;2.00;;;;;;;19.99;100.00;95863.72;5063704;28;20057;-76
2023/07/16 02:22:57;;;;;;;2.22;1.75;;;;;;;19.99;100.00;95866.41;5068638;28;20374;-75
2023/07/16 02:25:22;;;;;;;2.33;2.05;;;;;;;20.05;100.00;95872.81;5061828;28;20060;-75
2023/07/16 02:27:48;;;;;;;1.83;1.73;;;;;;;20.01;100.00;95883.06;5080609;28;20033;-75
2023/07/16 02:30:15;;;;;;;2.10;1.90;;;;;;;20.02;100.00;95899.91;5077918;28;20060;-75
2023/07/16 02:32:40;;;;;;;2.42;2.20;;;;;;;20.01;100.00;95904.47;5066181;28;20067;-74
2023/07/16 02:35:07;;;;;;;2.22;2.03;;;;;;;20.03;100.00;95907.75;5082030;28;20044;-75
2023/07/16 02:37:32;;;;;;;2.85;2.22;;;;;;;20.07;100.00;95902.81;5059099;28;20105;-75
2023/07/16 02:39:58;;;;;;;2.72;1.92;;;;;;;20.01;100.00;95911.63;5061505;28;20052;-75
2023/07/16 02:42:24;;;;;;;2.13;2.03;;;;;;;19.93;100.00;95912.59;5062748;28;20017;-75
2023/07/16 02:44:49;;;;;;;5.07;2.42;;;;;;;20.03;100.00;95915.78;5072067;28;20502;-75
2023/07/16 02:47:15;;;;;;;2.33;2.10;;;;;;;20.02;100.00;95914.13;5077786;28;20025;-75
2023/07/16 02:49:40;;;;;;;3.88;2.10;;;;;;;19.97;100.00;95921.88;5055450;28;20036;-75
2023/07/16 02:52:07;;;;;;;2.63;1.98;;;;;;;19.97;100.00;95915.72;5057696;28;20029;-74
2023/07/16 02:54:32;;;;;;;2.00;1.90;;;;;;;19.96;100.00;95917.56;5059441;28;20531;-75
2023/07/16 02:56:58;;;;;;;2.22;2.03;;;;;;;20.00;100.00;95921.47;5073285;28;20025;-75
2023/07/16 02:59:26;;;;;;;2.15;2.05;;;;;;;19.98;100.00;95915.50;5059061;28;20046;-75
2023/07/16 03:01:52;;;;;;;2.45;2.22;;;;;;;19.93;100.00;95920.63;5062954;28;20025;-75
2023/07/16 03:04:17;;;;;;;2.20;1.98;;;;;;;19.90;100.00;95923.66;5089442;28;20538;-75
2023/07/16 03:06:43;;;;;;;2.78;2.30;;;;;;;19.83;100.00;95925.47;5080956;28;20020;-76
2023/07/16 03:09:08;;;;;;;2.30;2.10;;;;;;;19.85;100.00;95926.91;5070366;28;20029;-75
2023/07/16 03:11:33;;;;;;;2.58;2.40;;;;;;;19.90;100.00;95926.31;5050590;28;20029;-75
2023/07/16 03:13:59;;;;;;;2.22;2.13;;;;;;;19.90;100.00;95929.00;5055556;28;20459;-75
2023/07/16 03:16:24;;;;;;;2.13;1.98;;;;;;;19.94;100.00;95926.81;5073184;28;20436;-76
2023/07/16 03:18:50;;;;;;;1.98;1.88;;;;;;;19.94;100.00;95918.78;5054984;28;20393;-75
2023/07/16 03:21:15;;;;;;;2.22;2.00;;;;;;;19.95;100.00;95921.25;5060543;28;20035;-75
2023/07/16 03:23:40;;;;;;;1.80;1.70;;;;;;;19.94;100.00;95914.25;5057986;28;20025;-75
2023/07/16 03:26:06;;;;;;;1.85;1.75;;;;;;;19.87;100.00;95918.72;5076099;28;20051;-75
2023/07/16 03:28:31;;;;;;;3.40;2.00;;;;;;;19.82;100.00;95902.44;5065279;28;20521;-75
2023/07/16 03:30:57;;;;;;;3.08;2.03;;;;;;;19.83;100.00;95902.22;5063517;28;20028;-75
2023/07/16 03:33:22;;;;;;;2.20;2.00;;;;;;;19.93;100.00;95898.44;5062475;28;20025;-75
2023/07/16 03:35:48;;;;;;;2.00;1.80;;;;;;;19.81;100.00;95900.81;5055293;28;20086;-74
2023/07/16 03:38:14;;;;;;;1.90;1.80;;;;;;;19.86;100.00;95895.69;5070573;28;20044;-74
2023/07/16 03:40:46;;;;;;;2.10;2.00;;;;;;;19.76;100.00;95898.69;5065786;28;20107;-75
2023/07/16 03:43:11;;;;;;;1.73;1.63;;;;;;;19.80;100.00;95896.47;5055057;28;20041;-75
2023/07/16 03:45:37;;;;;;;1.98;1.77;;;;;;;19.69;100.00;95895.97;5089696;28;20106;-75
2023/07/16 03:48:02;;;;;;;1.90;1.80;;;;;;;19.64;100.00;95897.56;5060318;28;20040;-75
2023/07/16 03:50:28;;;;;;;2.00;1.65;;;;;;;19.68;100.00;95904.19;5054546;28;20032;-74
2023/07/16 03:52:53;;;;;;;2.00;1.90;;;;;;;19.64;100.00;95898.41;5066234;28;20046;-74
2023/07/16 03:55:19;;;;;;;2.00;1.90;;;;;;;19.63;100.00;95912.78;5054514;28;20036;-74
2023/07/16 03:57:44;;;;;;;1.75;1.65;;;;;;;19.60;100.00;95927.34;5067239;28;20020;-74
2023/07/16 04:00:10;;;;;;;1.85;1.70;;;;;;;19.59;100.00;95932.88;5056989;28;20029;-74
2023/07/16 04:02:36;;;;;;;1.77;1.67;;;;;;;19.59;100.00;95933.69;5054740;28;20059;-74
2023/07/16 04:05:02;;;;;;;1.90;1.80;;;;;;;19.59;100.00;95943.56;5069454;28;20039;-74
2023/07/16 04:07:27;;;;;;;2.53;1.98;;;;;;;19.58;100.00;95944.59;5073085;28;20051;-74
2023/07/16 04:09:53;;;;;;;2.38;1.70;;;;;;;19.53;100.00;95947.00;5070461;28;20031;-74
2023/07/16 04:12:18;;;;;;;2.10;2.00;;;;;;;19.55;100.00;95951.13;5061007;28;20033;-74
2023/07/16 04:14:44;;;;;;;1.92;1.83;;;;;;;19.53;100.00;95955.00;5068835;28;20033;-74
2023/07/16 04:17:09;;;;;;;1.90;1.80;;;;;;;19.53;100.00;95952.31;5062374;28;20626;-73
2023/07/16 04:19:35;;;;;;;2.05;1.95;;;;;;;19.60;100.00;95953.22;5058779;28;20028;-73
2023/07/16 04:22:01;;;;;;;1.90;1.80;;;;;;;19.61;100.00;95953.03;5066071;28;20618;-73
2023/07/16 04:24:27;;;;;;;2.03;1.85;;;;;;;19.63;100.00;95954.69;5063125;28;20177;-73
2023/07/16 04:26:56;;;;;;;1.80;1.70;;;;;;;19.65;100.00;95952.63;5090041;28;20633;-72
2023/07/16 04:29:21;;;;;;;1.90;1.80;;;;;;;19.65;100.00;95956.16;5065314;28;20027;-72
2023/07/16 04:31:47;;;;;;;3.38;1.70;;;;;;;19.63;100.00;95952.00;5055780;28;20021;-72
2023/07/16 04:34:13;;;;;;;2.10;1.90;;;;;;;19.56;100.00;95954.59;5073616;28;20020;-73
2023/07/16 04:36:38;;;;;;;2.53;1.90;;;;;;;19.61;100.00;95962.91;5072047;28;20040;-73
2023/07/16 04:39:04;;;;;;;1.90;1.80;;;;;;;19.59;100.00;95964.94;5053639;28;20145;-73
2023/07/16 04:41:30;;;;;;;2.10;1.73;;;;;;;19.56;100.00;95965.28;5053765;28;20115;-73
2023/07/16 04:43:56;;;;;;;2.13;1.92;;;;;;;19.59;100.00;95957.72;5058680;28;20017;-72
2023/07/16 04:46:21;;;;;;;1.80;1.70;;;;;;;19.71;100.00;95968.72;5061197;28;20021;-73
2023/07/16 04:48:47;;;;;;;1.70;1.60;;;;;;;19.70;100.00;95966.25;5069328;28;20017;-72
2023/07/16 04:51:12;;;;;;;1.80;1.70;;;;;;;19.61;100.00;95973.56;5053362;28;20060;-72
2023/07/16 04:53:38;;;;;;;2.03;1.88;;;;;;;19.56;100.00;95976.81;5053591;28;20025;-72
2023/07/16 04:56:04;;;;;;;1.60;1.60;;;;;;;19.61;100.00;95979.72;5082469;28;20032;-73
2023/07/16 04:58:30;;;;;;;1.52;1.52;;;;;;;19.68;100.00;95979.78;5061957;28;20033;-73
2023/07/16 05:00:55;;;;;;;1.85;1.60;;;;;;;19.72;100.00;95975.72;5054616;28;20676;-72
2023/07/16 05:03:21;;;;;;;2.00;1.90;;;;;;;19.73;100.00;95982.69;5073144;28;20122;-72
2023/07/16 05:05:46;;;;;;;1.60;1.50;;;;;;;19.75;100.00;95986.00;5054337;28;20163;-72
2023/07/16 05:08:11;;;;;;;2.78;1.80;;;;;;;19.80;100.00;95981.94;5055513;28;20069;-72
2023/07/16 05:10:37;;;;;;;1.60;1.50;;;;;;;19.84;100.00;95983.22;5053904;28;20032;-73
2023/07/16 05:13:03;;;;;;;1.90;1.75;;;;;;;19.82;100.00;95987.94;5065876;28;20044;-72
2023/07/16 05:15:29;;;;;;;1.80;1.70;;;;;;;19.67;100.00;95994.16;5063529;28;20067;-73
2023/07/16 05:17:57;;;;;;;1.75;1.65;;;;;;;19.70;100.00;95987.63;5065547;28;20443;-72
2023/07/16 05:20:22;;;;;;;1.92;1.83;;;;;;;19.76;100.00;95998.34;5058561;28;20024;-72
2023/07/16 05:22:48;;;;;;;1.90;1.80;;;;;;;19.75;100.00;95999.34;5053687;28;20024;-73
2023/07/16 05:25:13;;;;;;;1.83;1.70;;;;;;;19.80;100.00;95997.97;5063472;28;20436;-73
2023/07/16 05:27:39;;;;;;;2.00;1.90;;;;;;;19.76;100.00;96003.69;5072662;28;20222;-75
2023/07/16 05:30:07;;;;;;;1.90;1.80;;;;;;;19.76;100.00;96018.91;5053307;28;20025;-74
2023/07/16 05:32:33;;;;;;;1.88;1.77;;;;;;;19.67;100.00;96018.19;5053479;28;20017;-74
2023/07/16 05:34:58;;;;;;;2.00;1.90;;;;;;;19.56;100.00;96008.84;5059424;28;20033;-75
2023/07/16 05:37:23;;;;;;;3.22;1.80;;;;;;;19.57;100.00;96010.50;5052920;28;20151;-75
2023/07/16 05:39:49;;;;;;;1.80;1.70;;;;;;;19.68;100.00;96011.84;5053822;28;20029;-74
2023/07/16 05:42:14;;;;;;;2.15;1.67;;;;;;;19.79;100.00;96012.34;5083951;28;20056;-75
2023/07/16 05:44:41;;;;;;;1.90;1.80;;;;;;;19.85;100.00;96011.56;5067905;28;20016;-74
2023/07/16 05:47:08;;;;;;;1.75;1.65;;;;;;;19.86;100.00;96007.88;5070954;28;20033;-75
2023/07/16 05:49:33;;;;;;;3.78;2.08;;;;;;;19.79;100.00;96017.69;5073992;28;20024;-75
2023/07/16 05:51:58;;;;;;;2.10;1.90;;;;;;;19.78;100.00;96022.19;5063323;28;20078;-74
2023/07/16 05:54:24;;;;;;;1.48;1.42;;;;;;;19.83;100.00;96022.44;5072594;28;20025;-75
2023/07/16 05:56:49;;;;;;;2.97;2.10;;;;;;;19.86;100.00;96016.72;5069862;28;20052;-74
2023/07/16 05:59:15;;;;;;;1.60;1.50;;;;;;;20.06;100.00;96025.97;5054534;28;20020;-74
2023/07/16 06:01:40;;;;;;;1.80;1.70;;;;;;;20.01;100.00;96024.69;5058395;28;20021;-75
2023/07/16 06:04:05;;;;;;;1.70;1.60;;;;;;;19.94;100.00;96023.78;5056603;28;20598;-74
2023/07/16 06:06:31;;;;;;;1.98;1.85;;;;;;;19.92;100.00;96017.00;5070643;28;20480;-75
2023/07/16 06:08:56;;;;;;;1.90;1.80;;;;;;;19.97;100.00;96030.63;5064466;28;20390;-75
2023/07/16 06:11:22;;;;;;;2.03;1.80;;;;;;;20.01;100.00;96021.19;5056282;28;20108;-75
2023/07/16 06:13:47;;;;;;;1.88;1.77;;;;;;;20.04;100.00;96024.31;5068048;28;20020;-74
2023/07/16 06:16:12;;;;;;;1.73;1.63;;;;;;;19.94;100.00;96015.78;5073978;28;20069;-75
2023/07/16 06:18:38;;;;;;;1.63;1.52;;;;;;;20.04;100.00;96015.44;5063960;28;20151;-74
2023/07/16 06:21:03;;;;;;;2.10;1.67;;;;;;;20.16;100.00;96005.06;5056397;28;20032;-75
2023/07/16 06:23:29;;;;;;;1.63;1.45;;;;;;;20.18;100.00;95995.81;5065628;28;20024;-74
2023/07/16 06:25:57;;;;;;;2.67;1.77;;;;;;;20.16;100.00;96000.53;5062517;28;20116;-74
2023/07/16 06:28:23;;;;;;;1.80;1.70;;;;;;;20.23;100.00;96000.59;5086333;28;20059;-74
2023/07/16 06:30:49;;;;;;;1.88;1.77;;;;;;;20.30;100.00;96001.47;5069022;28;20025;-74
2023/07/16 06:33:15;;;;;;;1.60;1.50;;;;;;;20.42;100.00;95996.38;5053715;28;20813;-74
2023/07/16 06:35:44;;;;;;;1.80;1.70;;;;;;;20.40;100.00;95993.09;5057809;28;20139;-75
2023/07/16 06:38:09;;;;;;;1.80;1.70;;;;;;;20.44;100.00;95999.69;5055166;28;20017;-74
2023/07/16 06:40:35;;;;;;;2.22;2.03;;;;;;;20.44;100.00;95989.00;5059691;28;20039;-74
2023/07/16 06:43:00;;;;;;;1.90;1.80;;;;;;;20.45;100.00;95985.28;5062865;28;20021;-75
2023/07/16 06:45:26;;;;;;;1.63;1.52;;;;;;;20.51;100.00;95978.34;5073300;28;20021;-75
2023/07/16 06:47:51;;;;;;;1.75;1.65;;;;;;;20.55;100.00;95976.91;5077587;28;20024;-75
2023/07/16 06:50:16;;;;;;;1.60;1.58;;;;;;;20.73;100.00;95975.56;5069110;28;20098;-74
2023/07/16 06:52:42;;;;;;;1.95;1.85;;;;;;;20.73;100.00;95978.25;5066850;28;20029;-75
2023/07/16 06:55:08;;;;;;;1.98;1.88;;;;;;;20.68;100.00;95978.81;5055407;28;20025;-75
2023/07/16 06:57:33;;;;;;;2.00;1.90;;;;;;;20.73;100.00;95986.25;5055770;28;20013;-74
2023/07/16 06:59:59;;;;;;;3.72;2.20;;;;;;;20.83;100.00;95992.09;5066266;28;20029;-75
2023/07/16 07:02:24;;;;;;;2.50;2.30;;;;;;;20.88;100.00;95988.81;5055239;28;20036;-75
2023/07/16 07:04:51;;;;;;;1.90;1.60;;;;;;;20.85;100.00;96011.44;5070353;28;20023;-75
2023/07/16 07:07:17;;;;;;;2.10;2.00;;;;;;;20.78;100.00;96010.56;5063600;28;20029;-75
2023/07/16 07:09:42;;;;;;;2.00;1.90;;;;;;;20.64;100.00;96007.00;5066739;28;20104;-75
2023/07/16 07:12:08;;;;;;;2.30;2.00;;;;;;;20.48;100.00;96008.16;5067122;28;20112;-74
2023/07/16 07:14:33;;;;;;;2.25;2.05;;;;;;;20.33;100.00;96010.91;5056730;28;20405;-75
2023/07/16 07:16:59;;;;;;;1.80;1.70;;;;;;;20.29;100.00;96007.00;5066913;28;20043;-75
2023/07/16 07:19:24;;;;;;;2.17;1.92;;;;;;;20.36;100.00;96012.38;5056326;28;20035;-74
2023/07/16 07:21:50;;;;;;;2.10;2.00;;;;;;;20.47;100.00;96015.34;5065618;28;20021;-74
2023/07/16 07:24:15;;;;;;;2.50;2.33;;;;;;;20.60;100.00;96014.59;5055178;28;20406;-74
2023/07/16 07:26:40;;;;;;;2.10;2.00;;;;;;;20.71;100.00;96013.19;5061896;28;20071;-74
2023/07/16 07:29:06;;;;;;;2.17;2.00;;;;;;;20.82;100.00;96014.50;5071978;28;20040;-74
2023/07/16 07:31:31;;;;;;;2.05;1.95;;;;;;;20.82;100.00;96011.03;5062903;28;20025;-74
2023/07/16 07:33:58;;;;;;;2.80;2.58;;;;;;;20.85;100.00;96003.41;5054634;28;20092;-74
2023/07/16 07:36:24;;;;;;;2.75;2.53;;;;;;;20.89;100.00;96003.84;5055587;28;20060;-74
2023/07/16 07:38:49;;;;;;;2.05;1.90;;;;;;;21.15;100.00;96003.13;5054615;28;20107;-74
2023/07/16 07:41:14;;;;;;;2.13;2.00;;;;;;;21.48;100.00;96001.56;5056513;28;20113;-74
2023/07/16 07:43:40;;;;;;;1.95;1.85;;;;;;;21.69;100.00;96005.13;5063534;28;20038;-74
2023/07/16 07:46:05;;;;;;;2.28;1.95;;;;;;;21.63;100.00;96005.88;5079804;28;20846;-74
2023/07/16 07:48:31;;;;;;;1.83;1.70;;;;;;;21.80;100.00;96004.50;5059221;28;20032;-73
2023/07/16 07:50:57;;;;;;;1.95;1.85;;;;;;;22.17;100.00;96006.75;5054481;28;20052;-74
2023/07/16 07:53:22;;;;;;;2.05;1.95;;;;;;;22.31;100.00;95997.69;5062223;28;20045;-74
2023/07/16 07:55:48;;;;;;;2.00;1.90;;;;;;;22.42;100.00;95995.38;5056320;28;20401;-74
2023/07/16 07:58:13;;;;;;;1.70;1.60;;;;;;;22.25;100.00;95995.84;5062361;28;20514;-74
2023/07/16 08:00:39;;;;;;;2.10;1.85;;;;;;;22.18;100.00;96003.03;5057159;28;20032;-74
2023/07/16 08:03:04;;;;;;;1.77;1.67;;;;;;;22.52;100.00;96001.19;5058555;28;20028;-74
2023/07/16 08:05:30;;;;;;;1.98;1.88;;;;;;;22.28;100.00;95991.91;5061693;28;20583;-74
2023/07/16 08:07:55;;;;;;;2.38;1.95;;;;;;;22.77;100.00;95997.78;5053642;28;20025;-74
2023/07/16 08:10:22;;;;;;;2.10;1.90;;;;;;;23.56;100.00;95997.63;5059156;28;20035;-74
2023/07/16 08:12:47;;;;;;;2.38;1.70;;;;;;;24.09;100.00;96002.84;5062585;28;20029;-74
2023/07/16 08:15:16;;;;;;;1.90;1.80;;;;;;;24.39;100.00;95991.41;5055075;28;20036;-75
2023/07/16 08:17:42;;;;;;;2.83;1.67;;;;;;;25.03;100.00;95991.13;5064022;28;20029;-74
2023/07/16 08:20:09;;;;;;;2.05;1.95;;;;;;;25.25;100.00;95991.47;5054132;28;20385;-74
2023/07/16 08:22:34;;;;;;;2.38;2.17;;;;;;;25.46;100.00;95990.13;5055187;28;20029;-72
2023/07/16 08:25:00;;;;;;;2.45;1.80;;;;;;;25.56;100.00;95991.50;5053142;28;20442;-77
2023/07/16 08:27:26;;;;;;;2.50;2.40;;;;;;;25.64;100.00;95998.41;5054764;28;20039;-77
2023/07/16 08:29:51;;;;;;;1.80;1.70;;;;;;;25.56;100.00;95991.50;5060115;28;20032;-76
2023/07/16 08:32:16;;;;;;;2.17;2.00;;;;;;;25.89;100.00;95993.69;5069725;28;20032;-75
2023/07/16 08:34:42;;;;;;;2.15;1.80;;;;;;;26.27;100.00;95993.50;5060633;28;20093;-76
2023/07/16 08:37:07;;;;;;;3.03;1.90;;;;;;;26.42;100.00;95995.75;5061295;28;20028;-74
2023/07/16 08:39:33;;;;;;;1.88;1.77;;;;;;;26.50;100.00;96000.78;5060410;28;20050;-72
2023/07/16 08:41:59;;;;;;;1.92;1.63;;;;;;;26.48;100.00;96000.19;5064550;28;20029;-76
2023/07/16 08:44:26;;;;;;;2.15;1.65;;;;;;;26.77;100.00;95992.16;5073404;28;20035;-71
2023/07/16 08:46:52;;;;;;;2.22;1.73;;;;;;;27.11;100.00;96000.44;5078945;28;20025;-72
2023/07/16 08:49:19;;;;;;;1.73;1.63;;;;;;;26.84;100.00;96000.13;5073787;28;20027;-73
2023/07/16 08:51:48;;;;;;;1.75;1.65;;;;;;;27.03;100.00;95998.13;5072778;28;20103;-72
2023/07/16 08:54:18;;;;;;;2.05;1.85;;;;;;;25.99;100.00;95998.50;5059802;28;20036;-72
2023/07/16 08:56:44;;;;;;;1.70;1.60;;;;;;;25.70;100.00;96006.41;5059859;28;20035;-72
2023/07/16 08:59:10;;;;;;;3.20;1.73;;;;;;;25.86;100.00;96007.63;5065207;28;20025;-72
2023/07/16 09:01:37;;;;;;;1.90;1.80;;;;;;;26.17;100.00;95997.59;5071745;28;20369;-72
2023/07/16 09:04:03;;;;;;;2.45;1.83;;;;;;;26.39;100.00;96002.41;5062219;28;20053;-72
2023/07/16 09:06:28;;;;;;;1.95;1.77;;;;;;;26.95;100.00;96006.59;5060029;28;20021;-73
2023/07/16 09:08:55;;;;;;;2.33;2.05;;;;;;;27.59;100.00;96001.09;5064924;28;20044;-73
2023/07/16 09:11:21;;;;;;;1.90;1.80;;;;;;;27.72;100.00;96004.56;5064185;28;20032;-75
2023/07/16 09:13:47;;;;;;;2.00;1.90;;;;;;;27.82;100.00;96010.13;5052508;28;20029;-75
2023/07/16 09:16:16;;;;;;;2.10;2.00;;;;;;;28.02;100.00;96017.78;5055054;28;20025;-75
2023/07/16 09:18:42;;;;;;;2.20;1.70;;;;;;;28.17;100.00;96008.28;5071135;28;20063;-76
2023/07/16 09:21:08;;;;;;;2.75;2.08;;;;;;;28.06;100.00;96003.75;5061304;28;20379;-74
2023/07/16 09:23:34;;;;;;;2.00;1.80;;;;;;;28.19;100.00;95997.22;5074494;28;20039;-74
2023/07/16 09:25:59;;;;;;;2.05;1.85;;;;;;;28.09;100.00;96004.09;5067182;28;20055;-75
2023/07/16 09:28:25;;;;;;;1.88;1.77;;;;;;;28.15;100.00;95994.16;5066001;28;20029;-74
2023/07/16 09:30:52;;;;;;;2.03;1.92;;;;;;;28.08;100.00;95998.91;5069727;28;20044;-75
2023/07/16 09:33:19;;;;;;;2.10;2.00;;;;;;;28.53;100.00;96003.41;5058986;28;20213;-75
2023/07/16 09:35:48;;;;;;;2.20;2.00;;;;;;;28.51;100.00;95997.44;5072467;28;20044;-73
2023/07/16 09:38:14;;;;;;;2.88;1.85;;;;;;;28.39;100.00;95997.53;5064584;28;20025;-72
2023/07/16 09:40:43;;;;;;;2.10;1.90;;;;;;;28.39;100.00;95994.00;5064568;28;20035;-74
2023/07/16 09:43:09;;;;;;;1.52;1.42;;;;;;;28.17;100.00;95986.63;5064618;28;20496;-75
2023/07/16 09:45:35;;;;;;;3.35;1.67;;;;;;;28.38;100.00;95985.06;5077730;28;20098;-78
2023/07/16 09:48:02;;;;;;;2.10;2.00;;;;;;;28.27;100.00;95978.69;5081699;28;20035;-74
2023/07/16 09:50:30;;;;;;;2.00;1.80;;;;;;;28.46;100.00;95983.84;5068071;28;20036;-73
2023/07/16 09:52:56;;;;;;;2.30;2.00;;;;;;;28.57;100.00;95972.06;5058755;28;20099;-73
2023/07/16 09:55:22;;;;;;;1.90;1.80;;;;;;;28.77;100.00;95972.59;5064006;28;20021;-73
2023/07/16 09:57:50;;;;;;;2.15;1.92;;;;;;;28.78;100.00;95966.91;5072610;28;20080;-73
2023/07/16 10:00:17;;;;;;;2.30;1.48;;;;;;;28.50;100.00;95970.59;5056488;28;20082;-73
2023/07/16 10:02:44;;;;;;;1.90;1.80;;;;;;;28.78;100.00;95969.63;5069971;28;20491;-73
2023/07/16 10:05:17;;;;;;;1.90;1.80;;;;;;;28.74;100.00;95965.78;5060601;28;20100;-72
2023/07/16 10:07:49;;;;;;;2.22;2.03;;;;;;;28.72;100.00;95959.78;5066121;28;20401;-72
2023/07/16 10:10:17;;;;;;;2.72;2.05;;;;;;;28.94;100.00;95953.59;5067947;28;20559;-73
2023/07/16 10:12:43;;;;;;;3.75;2.13;;;;;;;28.81;100.00;95952.09;5069545;28;20051;-73
2023/07/16 10:15:11;;;;;;;2.85;2.30;;;;;;;28.83;100.00;95953.44;5065158;28;20108;-73
2023/07/16 10:17:37;;;;;;;2.42;2.28;;;;;;;28.97;100.00;95959.34;5037873;28;20039;-73
2023/07/16 10:20:07;;;;;;;2.72;2.40;;;;;;;29.05;100.00;95955.31;5066232;28;20063;-73
2023/07/16 10:22:32;;;;;;;3.25;2.20;;;;;;;29.11;100.00;95953.50;5060905;28;20150;-73
2023/07/16 10:24:58;;;;;;;2.37;2.17;;;;;;;29.19;100.00;95946.81;5056329;28;20021;-74
2023/07/16 10:27:31;;;;;;;3.00;1.98;;;;;;;28.39;100.00;95942.56;5091218;28;20269;-73
2023/07/16 10:29:59;;;;;;;3.70;2.08;;;;;;;28.05;100.00;95940.69;5058181;28;20021;-74
2023/07/16 10:32:28;;;;;;;2.00;1.90;;;;;;;27.93;100.00;95935.38;5059092;28;20059;-73
2023/07/16 10:34:54;;;;;;;2.92;2.00;;;;;;;27.65;100.00;95941.72;5066028;28;20070;-73
2023/07/16 10:37:19;;;;;;;2.50;2.30;;;;;;;27.60;100.00;95942.44;5061345;28;20058;-70
2023/07/16 10:39:49;;;;;;;3.33;2.30;;;;;;;28.06;100.00;95930.72;5063326;28;20118;-69
2023/07/16 10:42:16;;;;;;;2.58;2.10;;;;;;;28.70;100.00;95930.25;5059108;28;20033;-69
2023/07/16 10:44:41;;;;;;;2.17;2.08;;;;;;;29.24;100.00;95933.31;5072488;28;20421;-70
2023/07/16 10:47:07;;;;;;;5.75;2.40;;;;;;;29.12;100.00;95934.28;5073409;28;20376;-71
2023/07/16 10:49:33;;;;;;;2.53;2.33;;;;;;;28.93;100.00;95924.84;5073723;28;20024;-71
2023/07/16 10:52:02;;;;;;;4.03;2.30;;;;;;;29.04;100.00;95914.94;5074226;28;20017;-70
2023/07/16 10:54:27;;;;;;;3.13;2.20;;;;;;;29.66;100.00;95924.50;5073169;28;20020;-70
2023/07/16 10:56:53;;;;;;;3.35;2.15;;;;;;;29.78;100.00;95923.53;5064122;28;20334;-69
2023/07/16 10:59:21;;;;;;;3.35;2.67;;;;;;;29.86;100.00;95923.88;5059529;28;20403;-70
2023/07/16 11:01:47;;;;;;;4.50;2.00;;;;;;;30.28;100.00;95921.44;5063852;28;20173;-70
2023/07/16 11:04:12;;;;;;;3.58;2.42;;;;;;;30.20;100.00;95924.66;5058357;28;20036;-68
2023/07/16 11:06:38;;;;;;;6.00;2.05;;;;;;;30.36;100.00;95925.56;5056530;28;20516;-68
2023/07/16 11:09:10;;;;;;;2.55;2.30;;;;;;;29.88;100.00;95919.00;5057608;28;20032;-70
2023/07/16 11:11:35;;;;;;;2.30;2.10;;;;;;;29.85;100.00;95922.22;5055744;28;20021;-72
2023/07/16 11:14:07;;;;;;;2.03;1.92;;;;;;;29.56;100.00;95919.81;5069294;28;20066;-71
2023/07/16 11:16:37;;;;;;;3.00;2.25;;;;;;;29.49;100.00;95916.50;5067078;28;20009;-69
2023/07/16 11:19:07;;;;;;;2.17;2.08;;;;;;;29.27;100.00;95920.06;5063226;28;20028;-71